Fairbanks, AK (99775)

5:29 AM AKDT on October 20, 2014 (GMT -0800)
AKDOT Lathrop Street @ 21st Street | Change Station
CLOSE
Current Station
Personal Weather Station
Location: Fairbanks, AK
Elevation: 478 ft
Nearby Weather Stations

Elev 478 ft 64.83 °N, 147.74 °W | Updated 36 minutes ago

Overcast
Overcast
31 °F
Feels Like 31 °F
N
0
Wind Variable Wind from North
Gusts 1.0 mph

Today
High -- | Low -- °F
--% Chance of Precip.
Yesterday
High -- | Low -- °F
Precip. -- in
9:00 AM 6:10 PM
Waning Crescent, 11% visible
Pressure 29.16 in
Visibility 10.0 miles
Clouds Few 2000 ft
Overcast 5000 ft
Windchill 31 °F
Dew Point 22 °F
Humidity 69%
Rainfall -999.00 in
Snow Depth Not available.
UV 0 out of 12
Pollen Not available.
Air Quality Not available.
Flu Activity Sporadic
METAR PAFA 201253Z 36007KT 10SM FEW020 OVC050 01/M06 A2914 RMK AO2 SLP874 T00061056

More Conditions Fewer Conditions

Pressure 29.16 in
Visibility 10.0 miles
Clouds Few 2000 ft
Overcast 5000 ft
Windchill 31 °F
Dew Point 22 °F
Humidity 69%
Rainfall -999.00 in
Snow Depth Not available.
UV 0 out of 12
Pollen Not available.
Air Quality Not available.
Flu Activity Sporadic
METAR PAFA 201253Z 36007KT 10SM FEW020 OVC050 01/M06 A2914 RMK AO2 SLP874 T00061056

More Conditions Fewer Conditions

10-Day Weather Forecast

Almanac

Astronomy

Oct. 20, 2014 Rise Set
Actual Time 9:00 AM AKDT 6:10 PM AKDT
Civil Twilight 8:09 AM AKDT 7:01 PM AKDT
Nautical Twilight 7:12 AM AKDT 7:58 PM AKDT
Astronomical Twilight 6:15 AM AKDT 8:55 PM AKDT
Moon 4:54 AM AKDT 5:31 PM AKDT
Length of Visible Light 10h 52m
Length of Day
9h 10m
Waning Crescent, 11% of the Moon is Illuminated
Today
Waning Crescent
Oct 23
New
Oct 30
First Quarter
Nov 6
Full
Nov 14
Last Quarter

Today's Extremes

State Highs State Lows

Community

WunderPhotos

Upload Photos

1,763,378 photos uploaded!

Nearby

Snow Depth

Station Depth Elevation
Little Chena Ridge 4 in 2000 ft
Munson Ridge 11 in 3100 ft
Mt. Ryan 7 in 2800 ft
Monument Creek 5 in 1850 ft
Teuchet Creek 4 in 1640 ft

Earthquake Activity

City Distance Mag. Time & Date
No recent earthquake activity has been reported nearby.
Minimum magnitude displayed is 2.5.

Coastal Water Temperatures

Place Temperature
No Stations Reporting

Nearby Weather Stations